sensor_id;sensor_type;location;lat;lon;timestamp;temperature;humidity
9861;DHT22;4969;52.304;4.968;2023-11-18T00:01:20;13.09;77.34
9861;DHT22;4969;52.304;4.968;2023-11-18T00:03:47;12.88;77.09
9861;DHT22;4969;52.304;4.968;2023-11-18T00:06:13;12.51;77.09
9861;DHT22;4969;52.304;4.968;2023-11-18T00:08:40;12.55;77.15
9861;DHT22;4969;52.304;4.968;2023-11-18T00:11:08;12.29;76.78
9861;DHT22;4969;52.304;4.968;2023-11-18T00:13:36;12.21;77.51
9861;DHT22;4969;52.304;4.968;2023-11-18T00:16:04;12.23;77.52
9861;DHT22;4969;52.304;4.968;2023-11-18T00:18:31;12.20;77.97
9861;DHT22;4969;52.304;4.968;2023-11-18T00:20:57;12.34;77.97
9861;DHT22;4969;52.304;4.968;2023-11-18T00:23:24;12.27;77.88
9861;DHT22;4969;52.304;4.968;2023-11-18T00:25:52;12.24;77.68
9861;DHT22;4969;52.304;4.968;2023-11-18T00:28:19;12.23;78.06
9861;DHT22;4969;52.304;4.968;2023-11-18T00:30:46;12.21;78.10
9861;DHT22;4969;52.304;4.968;2023-11-18T00:33:13;12.26;78.23
9861;DHT22;4969;52.304;4.968;2023-11-18T00:35:39;12.36;78.41
9861;DHT22;4969;52.304;4.968;2023-11-18T00:38:06;12.44;78.00
9861;DHT22;4969;52.304;4.968;2023-11-18T00:40:33;12.45;78.44
9861;DHT22;4969;52.304;4.968;2023-11-18T00:43:00;12.41;78.36
9861;DHT22;4969;52.304;4.968;2023-11-18T00:45:29;12.37;78.27
9861;DHT22;4969;52.304;4.968;2023-11-18T00:47:55;12.54;78.89
9861;DHT22;4969;52.304;4.968;2023-11-18T00:50:22;12.57;78.30
9861;DHT22;4969;52.304;4.968;2023-11-18T00:52:48;12.68;77.85
9861;DHT22;4969;52.304;4.968;2023-11-18T00:55:15;12.65;77.50
9861;DHT22;4969;52.304;4.968;2023-11-18T00:57:44;12.69;78.05
9861;DHT22;4969;52.304;4.968;2023-11-18T01:00:12;12.59;77.81
9861;DHT22;4969;52.304;4.968;2023-11-18T01:02:42;12.59;77.82
9861;DHT22;4969;52.304;4.968;2023-11-18T01:05:09;12.20;76.85
9861;DHT22;4969;52.304;4.968;2023-11-18T01:07:36;11.97;77.55
9861;DHT22;4969;52.304;4.968;2023-11-18T01:10:03;12.40;78.96
9861;DHT22;4969;52.304;4.968;2023-11-18T01:12:31;12.50;78.38
9861;DHT22;4969;52.304;4.968;2023-11-18T01:14:58;12.45;77.90
9861;DHT22;4969;52.304;4.968;2023-11-18T01:17:24;12.64;78.17
9861;DHT22;4969;52.304;4.968;2023-11-18T01:19:52;12.44;77.16
9861;DHT22;4969;52.304;4.968;2023-11-18T01:22:19;12.78;77.49
9861;DHT22;4969;52.304;4.968;2023-11-18T01:24:47;12.99;76.84
9861;DHT22;4969;52.304;4.968;2023-11-18T01:27:13;13.22;76.42
9861;DHT22;4969;52.304;4.968;2023-11-18T01:29:40;13.03;76.42
9861;DHT22;4969;52.304;4.968;2023-11-18T01:32:06;12.76;75.78
9861;DHT22;4969;52.304;4.968;2023-11-18T01:34:35;12.96;77.86
9861;DHT22;4969;52.304;4.968;2023-11-18T01:37:04;13.35;76.46
9861;DHT22;4969;52.304;4.968;2023-11-18T01:39:32;13.83;75.97
9861;DHT22;4969;52.304;4.968;2023-11-18T01:41:59;13.95;75.03
9861;DHT22;4969;52.304;4.968;2023-11-18T01:44:26;14.24;74.60
9861;DHT22;4969;52.304;4.968;2023-11-18T01:46:53;14.44;73.54
9861;DHT22;4969;52.304;4.968;2023-11-18T01:49:20;14.18;73.32
9861;DHT22;4969;52.304;4.968;2023-11-18T01:51:50;14.31;73.29
9861;DHT22;4969;52.304;4.968;2023-11-18T01:54:19;14.30;73.28
9861;DHT22;4969;52.304;4.968;2023-11-18T01:56:47;14.23;73.74
9861;DHT22;4969;52.304;4.968;2023-11-18T01:59:14;14.12;73.34
9861;DHT22;4969;52.304;4.968;2023-11-18T02:01:46;14.26;73.81
9861;DHT22;4969;52.304;4.968;2023-11-18T02:04:13;14.31;72.62
9861;DHT22;4969;52.304;4.968;2023-11-18T02:06:40;14.51;73.09
9861;DHT22;4969;52.304;4.968;2023-11-18T02:09:07;13.90;73.22
9861;DHT22;4969;52.304;4.968;2023-11-18T02:11:37;14.40;73.32
9861;DHT22;4969;52.304;4.968;2023-11-18T02:14:08;14.81;72.08
9861;DHT22;4969;52.304;4.968;2023-11-18T02:16:38;14.68;72.28
9861;DHT22;4969;52.304;4.968;2023-11-18T02:19:09;14.26;71.14
9861;DHT22;4969;52.304;4.968;2023-11-18T02:21:43;14.41;72.82
9861;DHT22;4969;52.304;4.968;2023-11-18T02:24:11;14.06;72.11
9861;DHT22;4969;52.304;4.968;2023-11-18T02:26:38;13.88;72.36
9861;DHT22;4969;52.304;4.968;2023-11-18T02:29:05;14.24;73.41
9861;DHT22;4969;52.304;4.968;2023-11-18T02:31:34;14.40;72.81
9861;DHT22;4969;52.304;4.968;2023-11-18T02:34:06;14.57;72.06
9861;DHT22;4969;52.304;4.968;2023-11-18T02:36:45;14.68;71.84
9861;DHT22;4969;52.304;4.968;2023-11-18T02:39:16;14.33;70.08
9861;DHT22;4969;52.304;4.968;2023-11-18T02:41:51;15.27;69.63
9861;DHT22;4969;52.304;4.968;2023-11-18T02:44:19;15.00;70.02
9861;DHT22;4969;52.304;4.968;2023-11-18T02:46:48;14.48;70.74
9861;DHT22;4969;52.304;4.968;2023-11-18T02:49:15;14.48;71.89
9861;DHT22;4969;52.304;4.968;2023-11-18T02:51:42;14.79;71.18
9861;DHT22;4969;52.304;4.968;2023-11-18T02:54:13;14.89;70.47
9861;DHT22;4969;52.304;4.968;2023-11-18T02:56:41;14.82;70.96
9861;DHT22;4969;52.304;4.968;2023-11-18T02:59:09;14.62;71.40
9861;DHT22;4969;52.304;4.968;2023-11-18T03:01:36;14.17;69.82
9861;DHT22;4969;52.304;4.968;2023-11-18T03:04:04;14.20;71.50
9861;DHT22;4969;52.304;4.968;2023-11-18T03:06:31;14.02;71.66
9861;DHT22;4969;52.304;4.968;2023-11-18T03:08:59;13.93;72.36
9861;DHT22;4969;52.304;4.968;2023-11-18T03:11:25;14.06;73.29
9861;DHT22;4969;52.304;4.968;2023-11-18T03:13:55;13.92;72.24
9861;DHT22;4969;52.304;4.968;2023-11-18T03:16:23;13.95;72.62
9861;DHT22;4969;52.304;4.968;2023-11-18T03:18:50;14.54;72.41
9861;DHT22;4969;52.304;4.968;2023-11-18T03:21:17;14.44;71.67
9861;DHT22;4969;52.304;4.968;2023-11-18T03:23:44;14.42;71.52
9861;DHT22;4969;52.304;4.968;2023-11-18T03:26:11;15.09;70.04
9861;DHT22;4969;52.304;4.968;2023-11-18T03:28:38;15.09;69.65
9861;DHT22;4969;52.304;4.968;2023-11-18T03:31:05;15.27;69.14
9861;DHT22;4969;52.304;4.968;2023-11-18T03:33:33;15.07;68.71
9861;DHT22;4969;52.304;4.968;2023-11-18T03:35:59;15.44;68.60
9861;DHT22;4969;52.304;4.968;2023-11-18T03:38:26;15.50;68.46
9861;DHT22;4969;52.304;4.968;2023-11-18T03:40:53;15.59;68.38
9861;DHT22;4969;52.304;4.968;2023-11-18T03:43:19;15.41;68.38
9861;DHT22;4969;52.304;4.968;2023-11-18T03:45:46;15.69;67.76
9861;DHT22;4969;52.304;4.968;2023-11-18T03:48:12;15.69;67.35
9861;DHT22;4969;52.304;4.968;2023-11-18T03:50:41;15.61;67.80
9861;DHT22;4969;52.304;4.968;2023-11-18T03:53:10;15.24;67.71
9861;DHT22;4969;52.304;4.968;2023-11-18T03:55:37;15.00;68.88
9861;DHT22;4969;52.304;4.968;2023-11-18T03:58:03;14.60;68.84
9861;DHT22;4969;52.304;4.968;2023-11-18T04:00:30;14.38;68.39
9861;DHT22;4969;52.304;4.968;2023-11-18T04:02:58;14.40;70.71
9861;DHT22;4969;52.304;4.968;2023-11-18T04:05:25;14.75;70.72
9861;DHT22;4969;52.304;4.968;2023-11-18T04:07:53;14.65;69.67
9861;DHT22;4969;52.304;4.968;2023-11-18T04:10:19;14.61;70.14
9861;DHT22;4969;52.304;4.968;2023-11-18T04:12:46;14.57;70.43
9861;DHT22;4969;52.304;4.968;2023-11-18T04:15:13;14.90;69.68
9861;DHT22;4969;52.304;4.968;2023-11-18T04:17:40;14.82;69.50
9861;DHT22;4969;52.304;4.968;2023-11-18T04:20:10;14.40;69.83
9861;DHT22;4969;52.304;4.968;2023-11-18T04:22:38;14.71;70.58
9861;DHT22;4969;52.304;4.968;2023-11-18T04:25:07;15.09;69.39
9861;DHT22;4969;52.304;4.968;2023-11-18T04:27:34;14.85;69.26
9861;DHT22;4969;52.304;4.968;2023-11-18T04:30:00;14.64;70.29
9861;DHT22;4969;52.304;4.968;2023-11-18T04:32:27;15.06;69.79
9861;DHT22;4969;52.304;4.968;2023-11-18T04:34:53;14.85;69.66
9861;DHT22;4969;52.304;4.968;2023-11-18T04:37:20;14.65;69.72
9861;DHT22;4969;52.304;4.968;2023-11-18T04:39:46;14.88;69.44
9861;DHT22;4969;52.304;4.968;2023-11-18T04:42:14;14.64;69.76
9861;DHT22;4969;52.304;4.968;2023-11-18T04:44:41;14.71;69.77
9861;DHT22;4969;52.304;4.968;2023-11-18T04:47:08;14.50;70.07
9861;DHT22;4969;52.304;4.968;2023-11-18T04:49:35;14.18;69.22
9861;DHT22;4969;52.304;4.968;2023-11-18T04:52:02;14.67;70.96
9861;DHT22;4969;52.304;4.968;2023-11-18T04:54:28;14.60;69.89
9861;DHT22;4969;52.304;4.968;2023-11-18T04:56:55;14.61;71.02
9861;DHT22;4969;52.304;4.968;2023-11-18T04:59:23;14.67;69.23
9861;DHT22;4969;52.304;4.968;2023-11-18T05:01:49;14.60;70.14
9861;DHT22;4969;52.304;4.968;2023-11-18T05:04:18;14.13;70.32
9861;DHT22;4969;52.304;4.968;2023-11-18T05:06:44;13.66;68.47
9861;DHT22;4969;52.304;4.968;2023-11-18T05:09:11;13.68;71.22
9861;DHT22;4969;52.304;4.968;2023-11-18T05:11:38;13.82;71.84
9861;DHT22;4969;52.304;4.968;2023-11-18T05:14:04;14.10;70.89
9861;DHT22;4969;52.304;4.968;2023-11-18T05:16:33;14.07;71.21
9861;DHT22;4969;52.304;4.968;2023-11-18T05:19:00;14.31;71.90
9861;DHT22;4969;52.304;4.968;2023-11-18T05:21:26;14.60;70.57
9861;DHT22;4969;52.304;4.968;2023-11-18T05:23:53;14.57;70.03
9861;DHT22;4969;52.304;4.968;2023-11-18T05:26:19;14.58;70.86
9861;DHT22;4969;52.304;4.968;2023-11-18T05:28:46;13.79;68.95
9861;DHT22;4969;52.304;4.968;2023-11-18T05:31:15;14.27;69.86
9861;DHT22;4969;52.304;4.968;2023-11-18T05:33:43;14.14;71.63
9861;DHT22;4969;52.304;4.968;2023-11-18T05:36:09;14.17;70.14
9861;DHT22;4969;52.304;4.968;2023-11-18T05:38:36;14.28;70.97
9861;DHT22;4969;52.304;4.968;2023-11-18T05:41:03;14.12;67.46
9861;DHT22;4969;52.304;4.968;2023-11-18T05:43:33;13.99;70.72
9861;DHT22;4969;52.304;4.968;2023-11-18T05:46:05;13.82;71.10
9861;DHT22;4969;52.304;4.968;2023-11-18T05:48:47;14.31;71.11
9861;DHT22;4969;52.304;4.968;2023-11-18T05:51:18;14.33;70.70
9861;DHT22;4969;52.304;4.968;2023-11-18T05:53:45;13.61;68.69
9861;DHT22;4969;52.304;4.968;2023-11-18T05:56:12;13.89;71.76
9861;DHT22;4969;52.304;4.968;2023-11-18T05:58:38;14.06;70.68
9861;DHT22;4969;52.304;4.968;2023-11-18T06:01:06;14.02;71.37
9861;DHT22;4969;52.304;4.968;2023-11-18T06:03:33;14.42;70.12
9861;DHT22;4969;52.304;4.968;2023-11-18T06:06:05;14.30;68.68
9861;DHT22;4969;52.304;4.968;2023-11-18T06:08:32;14.45;71.63
9861;DHT22;4969;52.304;4.968;2023-11-18T06:10:58;14.07;67.65
9861;DHT22;4969;52.304;4.968;2023-11-18T06:13:25;13.00;68.58
9861;DHT22;4969;52.304;4.968;2023-11-18T06:15:52;12.59;68.97
9861;DHT22;4969;52.304;4.968;2023-11-18T06:18:19;12.50;72.59
9861;DHT22;4969;52.304;4.968;2023-11-18T06:20:45;12.80;70.71
9861;DHT22;4969;52.304;4.968;2023-11-18T06:23:13;13.16;71.77
9861;DHT22;4969;52.304;4.968;2023-11-18T06:25:43;12.91;72.67
9861;DHT22;4969;52.304;4.968;2023-11-18T06:28:11;13.57;72.36
9861;DHT22;4969;52.304;4.968;2023-11-18T06:30:37;13.09;69.65
9861;DHT22;4969;52.304;4.968;2023-11-18T06:33:04;12.65;69.41
9861;DHT22;4969;52.304;4.968;2023-11-18T06:35:31;11.96;69.19
9861;DHT22;4969;52.304;4.968;2023-11-18T06:37:59;12.26;72.65
9861;DHT22;4969;52.304;4.968;2023-11-18T06:40:27;12.42;72.68
9861;DHT22;4969;52.304;4.968;2023-11-18T06:42:54;12.10;71.54
9861;DHT22;4969;52.304;4.968;2023-11-18T06:45:27;12.17;73.17
9861;DHT22;4969;52.304;4.968;2023-11-18T06:47:57;11.93;70.98
9861;DHT22;4969;52.304;4.968;2023-11-18T06:50:24;12.34;74.85
9861;DHT22;4969;52.304;4.968;2023-11-18T06:52:52;12.76;74.01
9861;DHT22;4969;52.304;4.968;2023-11-18T06:55:18;13.07;70.56
9861;DHT22;4969;52.304;4.968;2023-11-18T06:57:46;13.06;72.80
9861;DHT22;4969;52.304;4.968;2023-11-18T07:00:14;13.30;71.28
9861;DHT22;4969;52.304;4.968;2023-11-18T07:02:40;13.10;74.42
9861;DHT22;4969;52.304;4.968;2023-11-18T07:05:08;13.28;72.38
9861;DHT22;4969;52.304;4.968;2023-11-18T07:07:34;12.88;71.66
9861;DHT22;4969;52.304;4.968;2023-11-18T07:10:03;12.93;73.96
9861;DHT22;4969;52.304;4.968;2023-11-18T07:12:32;13.45;69.56
9861;DHT22;4969;52.304;4.968;2023-11-18T07:15:00;13.68;71.36
9861;DHT22;4969;52.304;4.968;2023-11-18T07:17:27;12.73;67.96
9861;DHT22;4969;52.304;4.968;2023-11-18T07:19:54;12.69;68.95
9861;DHT22;4969;52.304;4.968;2023-11-18T07:22:20;12.99;72.93
9861;DHT22;4969;52.304;4.968;2023-11-18T07:24:47;13.02;73.00
9861;DHT22;4969;52.304;4.968;2023-11-18T07:27:14;13.62;73.93
9861;DHT22;4969;52.304;4.968;2023-11-18T07:29:41;13.50;69.94
9861;DHT22;4969;52.304;4.968;2023-11-18T07:32:11;13.47;72.48
9861;DHT22;4969;52.304;4.968;2023-11-18T07:34:39;13.61;72.16
9861;DHT22;4969;52.304;4.968;2023-11-18T07:37:06;13.52;69.04
9861;DHT22;4969;52.304;4.968;2023-11-18T07:39:34;14.14;72.09
9861;DHT22;4969;52.304;4.968;2023-11-18T07:42:10;14.42;70.36
9861;DHT22;4969;52.304;4.968;2023-11-18T07:44:37;14.44;70.61
9861;DHT22;4969;52.304;4.968;2023-11-18T07:47:04;14.10;66.89
9861;DHT22;4969;52.304;4.968;2023-11-18T07:49:33;13.48;71.20
9861;DHT22;4969;52.304;4.968;2023-11-18T07:52:01;14.07;72.00
9861;DHT22;4969;52.304;4.968;2023-11-18T07:54:27;14.38;69.65
9861;DHT22;4969;52.304;4.968;2023-11-18T07:56:54;14.23;68.77
9861;DHT22;4969;52.304;4.968;2023-11-18T07:59:20;13.75;67.60
9861;DHT22;4969;52.304;4.968;2023-11-18T08:01:49;13.24;66.61
9861;DHT22;4969;52.304;4.968;2023-11-18T08:04:15;13.28;69.03
9861;DHT22;4969;52.304;4.968;2023-11-18T08:06:44;13.93;69.57
9861;DHT22;4969;52.304;4.968;2023-11-18T08:09:11;14.21;69.91
9861;DHT22;4969;52.304;4.968;2023-11-18T08:11:40;14.07;68.69
9861;DHT22;4969;52.304;4.968;2023-11-18T08:14:07;14.23;70.64
9861;DHT22;4969;52.304;4.968;2023-11-18T08:16:33;14.38;72.00
9861;DHT22;4969;52.304;4.968;2023-11-18T08:19:00;13.75;70.02
9861;DHT22;4969;52.304;4.968;2023-11-18T08:21:27;13.44;72.90
9861;DHT22;4969;52.304;4.968;2023-11-18T08:23:56;14.14;72.83
9861;DHT22;4969;52.304;4.968;2023-11-18T08:26:25;13.85;68.60
9861;DHT22;4969;52.304;4.968;2023-11-18T08:28:52;13.86;71.33
9861;DHT22;4969;52.304;4.968;2023-11-18T08:31:18;14.06;73.78
9861;DHT22;4969;52.304;4.968;2023-11-18T08:33:45;14.28;69.60
9861;DHT22;4969;52.304;4.968;2023-11-18T08:36:11;13.95;72.87
9861;DHT22;4969;52.304;4.968;2023-11-18T08:38:38;14.24;69.92
9861;DHT22;4969;52.304;4.968;2023-11-18T08:41:06;14.28;67.81
9861;DHT22;4969;52.304;4.968;2023-11-18T08:43:34;13.82;69.32
9861;DHT22;4969;52.304;4.968;2023-11-18T08:46:01;13.93;70.60
9861;DHT22;4969;52.304;4.968;2023-11-18T08:48:27;14.44;72.07
9861;DHT22;4969;52.304;4.968;2023-11-18T08:50:54;15.10;69.46
9861;DHT22;4969;52.304;4.968;2023-11-18T08:53:21;15.21;67.26
9861;DHT22;4969;52.304;4.968;2023-11-18T08:55:51;14.89;67.95
9861;DHT22;4969;52.304;4.968;2023-11-18T08:58:20;14.55;68.10
9861;DHT22;4969;52.304;4.968;2023-11-18T09:00:49;13.92;66.01
9861;DHT22;4969;52.304;4.968;2023-11-18T09:03:19;14.24;71.82
9861;DHT22;4969;52.304;4.968;2023-11-18T09:05:51;14.41;70.99
9861;DHT22;4969;52.304;4.968;2023-11-18T09:08:25;13.71;68.52
9861;DHT22;4969;52.304;4.968;2023-11-18T09:10:52;14.07;70.37
9861;DHT22;4969;52.304;4.968;2023-11-18T09:13:22;14.82;68.06
9861;DHT22;4969;52.304;4.968;2023-11-18T09:15:50;14.78;68.84
9861;DHT22;4969;52.304;4.968;2023-11-18T09:18:17;14.40;66.30
9861;DHT22;4969;52.304;4.968;2023-11-18T09:20:45;14.24;70.19
9861;DHT22;4969;52.304;4.968;2023-11-18T09:23:13;14.33;69.85
9861;DHT22;4969;52.304;4.968;2023-11-18T09:25:41;13.86;70.94
9861;DHT22;4969;52.304;4.968;2023-11-18T09:28:07;13.93;67.62
9861;DHT22;4969;52.304;4.968;2023-11-18T09:30:37;14.96;68.95
9861;DHT22;4969;52.304;4.968;2023-11-18T09:33:16;14.37;71.25
9861;DHT22;4969;52.304;4.968;2023-11-18T09:35:51;14.37;71.35
9861;DHT22;4969;52.304;4.968;2023-11-18T09:38:21;15.16;69.87
9861;DHT22;4969;52.304;4.968;2023-11-18T09:40:49;14.67;68.13
9861;DHT22;4969;52.304;4.968;2023-11-18T09:43:18;14.55;71.26
9861;DHT22;4969;52.304;4.968;2023-11-18T09:45:48;14.89;69.73
9861;DHT22;4969;52.304;4.968;2023-11-18T09:48:18;14.76;67.13
9861;DHT22;4969;52.304;4.968;2023-11-18T09:50:51;14.93;69.61
9861;DHT22;4969;52.304;4.968;2023-11-18T09:53:19;15.14;68.01
9861;DHT22;4969;52.304;4.968;2023-11-18T09:55:49;15.06;68.18
9861;DHT22;4969;52.304;4.968;2023-11-18T09:58:21;14.86;69.65
9861;DHT22;4969;52.304;4.968;2023-11-18T10:00:56;14.12;69.35
9861;DHT22;4969;52.304;4.968;2023-11-18T10:03:24;14.12;65.55
9861;DHT22;4969;52.304;4.968;2023-11-18T10:05:51;13.62;67.59
9861;DHT22;4969;52.304;4.968;2023-11-18T10:08:20;13.75;70.93
9861;DHT22;4969;52.304;4.968;2023-11-18T10:10:51;14.55;70.19
9861;DHT22;4969;52.304;4.968;2023-11-18T10:13:31;13.71;67.50
9861;DHT22;4969;52.304;4.968;2023-11-18T10:16:01;13.69;68.54
9861;DHT22;4969;52.304;4.968;2023-11-18T10:18:30;14.06;71.29
9861;DHT22;4969;52.304;4.968;2023-11-18T10:21:00;13.74;68.45
9861;DHT22;4969;52.304;4.968;2023-11-18T10:23:29;14.02;70.37
9861;DHT22;4969;52.304;4.968;2023-11-18T10:25:59;14.51;69.29
9861;DHT22;4969;52.304;4.968;2023-11-18T10:28:27;14.03;69.45
9861;DHT22;4969;52.304;4.968;2023-11-18T10:30:55;14.50;69.06
9861;DHT22;4969;52.304;4.968;2023-11-18T10:33:24;14.95;68.53
9861;DHT22;4969;52.304;4.968;2023-11-18T10:35:56;14.89;69.28
9861;DHT22;4969;52.304;4.968;2023-11-18T10:38:23;15.45;67.86
9861;DHT22;4969;52.304;4.968;2023-11-18T10:40:53;15.18;68.36
9861;DHT22;4969;52.304;4.968;2023-11-18T10:43:20;15.04;68.02
9861;DHT22;4969;52.304;4.968;2023-11-18T10:45:50;15.17;68.59
9861;DHT22;4969;52.304;4.968;2023-11-18T10:48:18;14.86;66.59
9861;DHT22;4969;52.304;4.968;2023-11-18T10:50:49;13.96;66.44
9861;DHT22;4969;52.304;4.968;2023-11-18T10:53:18;14.62;71.14
9861;DHT22;4969;52.304;4.968;2023-11-18T10:55:45;15.13;68.87
9861;DHT22;4969;52.304;4.968;2023-11-18T10:58:11;14.24;67.98
9861;DHT22;4969;52.304;4.968;2023-11-18T11:00:49;14.40;69.94
9861;DHT22;4969;52.304;4.968;2023-11-18T11:03:18;15.33;69.07
9861;DHT22;4969;52.304;4.968;2023-11-18T11:05:50;15.38;67.51
9861;DHT22;4969;52.304;4.968;2023-11-18T11:08:19;14.95;69.61
9861;DHT22;4969;52.304;4.968;2023-11-18T11:10:46;14.90;69.01
9861;DHT22;4969;52.304;4.968;2023-11-18T11:13:14;15.20;62.83
9861;DHT22;4969;52.304;4.968;2023-11-18T11:15:43;14.68;67.78
9861;DHT22;4969;52.304;4.968;2023-11-18T11:18:12;15.58;68.41
9861;DHT22;4969;52.304;4.968;2023-11-18T11:20:45;15.57;68.19
9861;DHT22;4969;52.304;4.968;2023-11-18T11:23:21;15.65;68.04
9861;DHT22;4969;52.304;4.968;2023-11-18T11:26:02;15.97;66.50
9861;DHT22;4969;52.304;4.968;2023-11-18T11:28:39;15.06;64.97
9861;DHT22;4969;52.304;4.968;2023-11-18T11:31:18;15.37;68.97
9861;DHT22;4969;52.304;4.968;2023-11-18T11:33:53;15.14;68.07
9861;DHT22;4969;52.304;4.968;2023-11-18T11:36:24;15.21;68.20
9861;DHT22;4969;52.304;4.968;2023-11-18T11:38:54;15.10;67.91
9861;DHT22;4969;52.304;4.968;2023-11-18T11:41:23;15.18;67.53
9861;DHT22;4969;52.304;4.968;2023-11-18T11:43:52;15.79;67.70
9861;DHT22;4969;52.304;4.968;2023-11-18T11:46:24;15.50;68.54
9861;DHT22;4969;52.304;4.968;2023-11-18T11:48:57;15.45;68.98
9861;DHT22;4969;52.304;4.968;2023-11-18T11:51:28;15.34;68.17
9861;DHT22;4969;52.304;4.968;2023-11-18T11:54:06;15.18;68.31
9861;DHT22;4969;52.304;4.968;2023-11-18T11:56:41;15.54;69.82
9861;DHT22;4969;52.304;4.968;2023-11-18T11:59:08;15.72;67.31
9861;DHT22;4969;52.304;4.968;2023-11-18T12:01:37;15.28;70.84
9861;DHT22;4969;52.304;4.968;2023-11-18T12:04:04;15.54;67.18
9861;DHT22;4969;52.304;4.968;2023-11-18T12:06:41;15.54;66.65
9861;DHT22;4969;52.304;4.968;2023-11-18T12:09:10;15.04;70.73
9861;DHT22;4969;52.304;4.968;2023-11-18T12:11:44;14.93;66.19
9861;DHT22;4969;52.304;4.968;2023-11-18T12:14:15;14.81;68.17
9861;DHT22;4969;52.304;4.968;2023-11-18T12:17:04;15.00;69.42
9861;DHT22;4969;52.304;4.968;2023-11-18T12:19:35;14.86;68.71
9861;DHT22;4969;52.304;4.968;2023-11-18T12:22:13;15.68;69.43
9861;DHT22;4969;52.304;4.968;2023-11-18T12:28:07;15.76;67.84
9861;DHT22;4969;52.304;4.968;2023-11-18T12:30:44;15.71;66.23
9861;DHT22;4969;52.304;4.968;2023-11-18T12:40:16;16.09;66.52
9861;DHT22;4969;52.304;4.968;2023-11-18T12:42:59;15.85;67.29
9861;DHT22;4969;52.304;4.968;2023-11-18T12:48:57;15.86;67.47
9861;DHT22;4969;52.304;4.968;2023-11-18T12:51:25;15.81;62.89
9861;DHT22;4969;52.304;4.968;2023-11-18T12:53:52;15.66;64.80
9861;DHT22;4969;52.304;4.968;2023-11-18T12:56:20;15.55;68.22
9861;DHT22;4969;52.304;4.968;2023-11-18T12:58:48;15.92;67.20
9861;DHT22;4969;52.304;4.968;2023-11-18T13:01:16;15.93;65.18
9861;DHT22;4969;52.304;4.968;2023-11-18T13:03:44;15.65;68.31
9861;DHT22;4969;52.304;4.968;2023-11-18T13:06:12;15.89;67.74
9861;DHT22;4969;52.304;4.968;2023-11-18T13:08:39;16.14;66.77
9861;DHT22;4969;52.304;4.968;2023-11-18T13:11:05;16.14;66.86
9861;DHT22;4969;52.304;4.968;2023-11-18T13:13:39;16.20;65.85
9861;DHT22;4969;52.304;4.968;2023-11-18T13:16:06;16.02;66.16
9861;DHT22;4969;52.304;4.968;2023-11-18T13:18:41;15.83;67.85
9861;DHT22;4969;52.304;4.968;2023-11-18T13:21:13;15.93;63.29
9861;DHT22;4969;52.304;4.968;2023-11-18T13:23:40;16.44;65.25
9861;DHT22;4969;52.304;4.968;2023-11-18T13:26:07;16.44;63.09
9861;DHT22;4969;52.304;4.968;2023-11-18T13:28:35;16.23;65.64
9861;DHT22;4969;52.304;4.968;2023-11-18T13:31:03;16.08;66.63
9861;DHT22;4969;52.304;4.968;2023-11-18T13:33:36;15.78;64.68
9861;DHT22;4969;52.304;4.968;2023-11-18T13:36:04;16.30;66.18
9861;DHT22;4969;52.304;4.968;2023-11-18T13:38:30;16.44;64.70
9861;DHT22;4969;52.304;4.968;2023-11-18T13:40:57;16.06;66.36
9861;DHT22;4969;52.304;4.968;2023-11-18T13:43:28;16.55;65.28
9861;DHT22;4969;52.304;4.968;2023-11-18T13:46:10;16.05;66.95
9861;DHT22;4969;52.304;4.968;2023-11-18T13:48:37;16.38;64.94
9861;DHT22;4969;52.304;4.968;2023-11-18T13:51:06;15.66;64.98
9861;DHT22;4969;52.304;4.968;2023-11-18T13:53:33;15.75;67.50
9861;DHT22;4969;52.304;4.968;2023-11-18T13:55:59;16.09;67.22
9861;DHT22;4969;52.304;4.968;2023-11-18T13:58:26;16.02;67.50
9861;DHT22;4969;52.304;4.968;2023-11-18T14:00:53;16.21;66.90
9861;DHT22;4969;52.304;4.968;2023-11-18T14:03:22;15.83;67.77
9861;DHT22;4969;52.304;4.968;2023-11-18T14:05:51;16.26;66.23
9861;DHT22;4969;52.304;4.968;2023-11-18T14:08:17;16.09;67.37
9861;DHT22;4969;52.304;4.968;2023-11-18T14:10:45;15.99;62.88
9861;DHT22;4969;52.304;4.968;2023-11-18T14:13:14;15.81;68.99
9861;DHT22;4969;52.304;4.968;2023-11-18T14:15:42;15.85;67.87
9861;DHT22;4969;52.304;4.968;2023-11-18T14:18:10;15.66;68.83
9861;DHT22;4969;52.304;4.968;2023-11-18T14:20:40;15.96;68.01
9861;DHT22;4969;52.304;4.968;2023-11-18T14:23:06;15.38;64.51
9861;DHT22;4969;52.304;4.968;2023-11-18T14:25:33;15.76;68.31
9861;DHT22;4969;52.304;4.968;2023-11-18T14:28:00;15.53;66.41
9861;DHT22;4969;52.304;4.968;2023-11-18T14:30:27;16.10;67.85
9861;DHT22;4969;52.304;4.968;2023-11-18T14:32:55;16.54;66.26
9861;DHT22;4969;52.304;4.968;2023-11-18T14:35:22;16.51;66.82
9861;DHT22;4969;52.304;4.968;2023-11-18T14:37:49;16.03;66.96
9861;DHT22;4969;52.304;4.968;2023-11-18T14:40:16;15.87;67.45
9861;DHT22;4969;52.304;4.968;2023-11-18T14:42:44;16.05;67.75
9861;DHT22;4969;52.304;4.968;2023-11-18T14:45:12;16.12;67.68
9861;DHT22;4969;52.304;4.968;2023-11-18T14:47:39;16.24;67.30
9861;DHT22;4969;52.304;4.968;2023-11-18T14:50:06;15.65;68.08
9861;DHT22;4969;52.304;4.968;2023-11-18T14:52:42;15.57;67.18
9861;DHT22;4969;52.304;4.968;2023-11-18T14:55:10;16.36;67.06
9861;DHT22;4969;52.304;4.968;2023-11-18T14:57:38;16.14;66.91
9861;DHT22;4969;52.304;4.968;2023-11-18T15:00:05;16.19;65.87
9861;DHT22;4969;52.304;4.968;2023-11-18T15:02:45;16.66;65.69
9861;DHT22;4969;52.304;4.968;2023-11-18T15:05:13;16.69;64.51
9861;DHT22;4969;52.304;4.968;2023-11-18T15:07:43;16.58;65.68
9861;DHT22;4969;52.304;4.968;2023-11-18T15:10:11;16.55;65.71
9861;DHT22;4969;52.304;4.968;2023-11-18T15:12:39;16.88;63.70
9861;DHT22;4969;52.304;4.968;2023-11-18T15:15:07;16.71;62.14
9861;DHT22;4969;52.304;4.968;2023-11-18T15:17:43;16.82;64.95
9861;DHT22;4969;52.304;4.968;2023-11-18T15:20:11;16.85;63.61
9861;DHT22;4969;52.304;4.968;2023-11-18T15:22:39;16.65;64.88
9861;DHT22;4969;52.304;4.968;2023-11-18T15:25:08;16.72;63.75
9861;DHT22;4969;52.304;4.968;2023-11-18T15:27:41;16.92;63.95
9861;DHT22;4969;52.304;4.968;2023-11-18T15:30:10;16.83;64.68
9861;DHT22;4969;52.304;4.968;2023-11-18T15:32:38;16.52;62.94
9861;DHT22;4969;52.304;4.968;2023-11-18T15:35:06;16.83;64.56
9861;DHT22;4969;52.304;4.968;2023-11-18T15:37:36;16.09;64.13
9861;DHT22;4969;52.304;4.968;2023-11-18T15:40:05;16.37;65.95
9861;DHT22;4969;52.304;4.968;2023-11-18T15:42:36;16.33;62.16
9861;DHT22;4969;52.304;4.968;2023-11-18T15:45:08;16.76;64.75
9861;DHT22;4969;52.304;4.968;2023-11-18T15:47:36;16.76;64.14
9861;DHT22;4969;52.304;4.968;2023-11-18T15:50:04;16.73;64.83
9861;DHT22;4969;52.304;4.968;2023-11-18T15:52:31;16.77;64.66
9861;DHT22;4969;52.304;4.968;2023-11-18T15:54:59;16.57;65.10
9861;DHT22;4969;52.304;4.968;2023-11-18T15:57:26;16.52;65.65
9861;DHT22;4969;52.304;4.968;2023-11-18T15:59:54;16.68;63.34
9861;DHT22;4969;52.304;4.968;2023-11-18T16:02:22;16.57;64.93
9861;DHT22;4969;52.304;4.968;2023-11-18T16:04:49;16.14;63.87
9861;DHT22;4969;52.304;4.968;2023-11-18T16:07:15;16.13;64.77
9861;DHT22;4969;52.304;4.968;2023-11-18T16:09:42;16.47;64.79
9861;DHT22;4969;52.304;4.968;2023-11-18T16:12:08;16.31;64.89
9861;DHT22;4969;52.304;4.968;2023-11-18T16:14:35;16.98;64.17
9861;DHT22;4969;52.304;4.968;2023-11-18T16:17:02;16.31;64.52
9861;DHT22;4969;52.304;4.968;2023-11-18T16:19:30;16.47;65.70
9861;DHT22;4969;52.304;4.968;2023-11-18T16:21:56;16.58;65.09
9861;DHT22;4969;52.304;4.968;2023-11-18T16:24:25;16.80;64.50